Time;durP1;ratioP1;P1;durP2;ratioP2;P2;SDS_P1;SDS_P2;PMS_P1;PMS_P2;Temp;Humidity;BMP_temperature;BMP_pressure;BME280_temperature;BME280_humidity;BME280_pressure;Samples;Min_cycle;Max_cycle;Signal;HPM_P1;HPM_P2
2021/12/02 00:02:20;;;;;;;1.27;1.23;;;;;;;2.56;100.00;94262.44;10572054;28;20368;-64
2021/12/02 00:07:21;;;;;;;2.83;1.33;;;;;;;2.56;100.00;94245.19;10572282;28;20194;-65
2021/12/02 00:12:21;;;;;;;1.60;1.50;;;;;;;2.70;100.00;94248.84;10572829;28;20166;-64
2021/12/02 00:17:28;;;;;;;1.33;1.23;;;;;;;2.79;100.00;94244.44;10570950;28;20210;-65
2021/12/02 00:22:29;;;;;;;2.93;1.90;;;;;;;2.96;100.00;94252.91;10572313;28;20212;-62
2021/12/02 00:27:29;;;;;;;3.13;1.60;;;;;;;3.15;100.00;94255.03;10571818;28;20170;-63
2021/12/02 00:32:30;;;;;;;1.30;1.20;;;;;;;3.36;100.00;94253.63;10571690;28;20183;-64
2021/12/02 00:37:31;;;;;;;1.57;1.20;;;;;;;3.31;100.00;94261.09;10569997;28;20163;-62
2021/12/02 00:42:35;;;;;;;1.00;1.00;;;;;;;3.37;100.00;94258.63;10571765;28;20209;-64
2021/12/02 00:47:36;;;;;;;1.50;1.40;;;;;;;3.42;100.00;94276.22;10570595;28;20284;-62
2021/12/02 00:52:37;;;;;;;1.00;1.00;;;;;;;3.50;100.00;94291.69;10571033;28;20403;-63
2021/12/02 00:57:39;;;;;;;3.27;1.10;;;;;;;3.62;100.00;94286.91;10570841;28;20177;-63
2021/12/02 01:02:42;;;;;;;1.13;1.10;;;;;;;3.65;100.00;94289.16;10570308;28;20229;-62
2021/12/02 01:07:42;;;;;;;1.10;1.00;;;;;;;3.67;100.00;94286.38;10570016;28;20277;-62
2021/12/02 01:12:43;;;;;;;3.70;1.00;;;;;;;3.68;100.00;94301.75;10570372;28;20163;-63
2021/12/02 01:17:43;;;;;;;1.27;1.17;;;;;;;3.53;100.00;94309.44;10569339;28;20244;-62
2021/12/02 01:22:44;;;;;;;3.47;1.40;;;;;;;3.45;100.00;94324.25;10569781;28;20199;-63
2021/12/02 01:27:47;;;;;;;1.43;1.33;;;;;;;3.34;100.00;94315.91;10569288;28;20175;-60
2021/12/02 01:32:48;;;;;;;1.93;1.73;;;;;;;3.21;100.00;94320.81;10569181;28;20186;-61
2021/12/02 01:37:48;;;;;;;2.77;1.70;;;;;;;3.02;100.00;94340.97;10568191;28;20163;-63
2021/12/02 01:42:55;;;;;;;2.27;1.40;;;;;;;3.02;100.00;94351.31;10569052;28;20198;-61
2021/12/02 01:47:56;;;;;;;2.67;1.17;;;;;;;2.93;100.00;94349.72;10568310;28;20181;-60
2021/12/02 01:52:58;;;;;;;2.93;1.00;;;;;;;2.78;100.00;94347.03;10569071;28;20159;-61
2021/12/02 01:58:04;;;;;;;3.23;0.97;;;;;;;2.62;100.00;94353.06;10568337;28;20238;-61
2021/12/02 02:03:04;;;;;;;1.10;0.80;;;;;;;2.55;100.00;94353.91;10567224;28;20195;-63
2021/12/02 02:08:16;;;;;;;2.87;0.97;;;;;;;2.39;100.00;94352.13;10567401;28;20194;-63
2021/12/02 02:13:19;;;;;;;1.90;0.90;;;;;;;2.31;100.00;94352.97;10567111;28;20284;-63
2021/12/02 02:18:24;;;;;;;0.90;0.90;;;;;;;2.24;100.00;94357.97;10566425;28;20222;-64
2021/12/02 02:23:26;;;;;;;5.20;0.90;;;;;;;2.22;100.00;94364.28;10566907;28;20195;-63
2021/12/02 02:28:27;;;;;;;2.60;1.00;;;;;;;2.14;100.00;94365.09;10566702;28;20200;-63
2021/12/02 02:33:36;;;;;;;2.07;1.00;;;;;;;2.03;100.00;94365.44;10567185;28;20178;-62
2021/12/02 02:38:36;;;;;;;2.90;1.20;;;;;;;2.03;100.00;94376.56;10567677;28;20431;-63
2021/12/02 02:43:37;;;;;;;5.30;1.10;;;;;;;2.12;100.00;94380.75;10566842;28;20198;-62
2021/12/02 02:48:37;;;;;;;2.90;1.70;;;;;;;2.14;100.00;94386.56;10565488;28;20163;-63
2021/12/02 02:53:38;;;;;;;3.60;1.33;;;;;;;2.26;100.00;94410.28;10567041;28;20171;-62
2021/12/02 02:59:02;;;;;;;2.33;1.00;;;;;;;2.31;100.00;94408.03;10568590;28;20179;-62
2021/12/02 03:04:17;;;;;;;3.33;1.00;;;;;;;2.29;100.00;94402.22;10574913;28;20190;-62
2021/12/02 03:19:48;;;;;;;3.73;0.93;;;;;;;2.07;100.00;94408.84;10573785;28;20346;-59
2021/12/02 03:24:48;;;;;;;5.93;1.40;;;;;;;2.05;100.00;94410.78;10573998;28;20189;-62
2021/12/02 03:29:48;;;;;;;4.33;1.40;;;;;;;1.99;100.00;94424.34;10574098;28;20269;-61
2021/12/02 03:34:49;;;;;;;3.90;1.43;;;;;;;1.99;100.00;94429.50;10574179;28;20165;-58
2021/12/02 03:39:49;;;;;;;5.57;1.43;;;;;;;1.92;100.00;94442.22;10573936;28;20243;-61
2021/12/02 03:44:49;;;;;;;3.27;1.07;;;;;;;1.94;100.00;94445.44;10573061;28;20297;-59
2021/12/02 03:49:50;;;;;;;3.20;1.30;;;;;;;2.01;100.00;94447.44;10573266;28;20291;-61
2021/12/02 03:54:50;;;;;;;1.67;1.10;;;;;;;2.12;100.00;94450.47;10573431;28;20166;-61
2021/12/02 03:59:50;;;;;;;1.57;1.20;;;;;;;2.18;100.00;94463.75;10572803;28;20178;-62
2021/12/02 04:04:51;;;;;;;2.83;1.00;;;;;;;2.19;100.00;94465.34;10545159;28;20225;-62
2021/12/02 04:09:53;;;;;;;2.90;1.20;;;;;;;2.23;100.00;94467.44;10524918;28;20186;-63
2021/12/02 04:15:05;;;;;;;5.87;1.30;;;;;;;2.14;100.00;94463.22;10523821;28;20238;-61
2021/12/02 04:20:09;;;;;;;4.30;1.23;;;;;;;2.15;100.00;94472.59;10524217;28;20267;-63
2021/12/02 04:25:11;;;;;;;2.27;1.17;;;;;;;2.09;100.00;94476.63;10524386;28;20191;-63
2021/12/02 04:30:14;;;;;;;4.60;0.93;;;;;;;2.17;100.00;94490.53;10523689;28;20321;-62
2021/12/02 04:35:16;;;;;;;5.10;1.20;;;;;;;2.20;100.00;94503.13;10523983;28;20176;-61
2021/12/02 04:40:19;;;;;;;4.00;1.47;;;;;;;2.14;100.00;94505.38;10523997;28;20201;-62
2021/12/02 04:45:19;;;;;;;2.80;1.20;;;;;;;2.18;100.00;94512.81;10523138;28;20260;-63
2021/12/02 04:50:20;;;;;;;5.87;1.50;;;;;;;2.09;100.00;94525.69;10523504;28;20175;-62
2021/12/02 04:55:20;;;;;;;3.27;1.43;;;;;;;2.12;100.00;94520.22;10523566;28;20172;-63
2021/12/02 05:00:21;;;;;;;5.23;1.50;;;;;;;2.07;100.00;94519.09;10522596;28;20167;-62
2021/12/02 05:05:22;;;;;;;2.73;1.30;;;;;;;2.05;100.00;94513.25;10528837;28;20312;-62
2021/12/02 05:10:23;;;;;;;6.37;1.30;;;;;;;2.05;100.00;94521.84;10528715;28;20344;-61
2021/12/02 05:15:23;;;;;;;3.80;1.20;;;;;;;2.01;100.00;94519.72;10528102;28;20226;-60
2021/12/02 05:20:24;;;;;;;5.20;1.40;;;;;;;1.95;100.00;94534.06;10527173;28;20174;-64
2021/12/02 05:25:24;;;;;;;5.40;1.27;;;;;;;1.77;100.00;94540.13;10527821;28;20448;-61
2021/12/02 05:30:24;;;;;;;4.57;1.30;;;;;;;1.73;100.00;94538.84;10527864;28;20236;-60
2021/12/02 05:35:25;;;;;;;2.10;1.30;;;;;;;1.80;100.00;94533.06;10526556;28;20183;-60
2021/12/02 05:40:25;;;;;;;2.73;1.10;;;;;;;1.86;100.00;94535.00;10527460;28;20190;-60
2021/12/02 05:45:26;;;;;;;2.53;1.03;;;;;;;1.87;100.00;94527.09;10526592;28;20214;-60
2021/12/02 05:50:26;;;;;;;3.40;1.70;;;;;;;1.71;100.00;94545.13;10526919;28;20174;-62
2021/12/02 05:55:27;;;;;;;6.60;2.40;;;;;;;1.66;100.00;94561.06;10526572;28;20399;-62
2021/12/02 06:00:27;;;;;;;3.67;1.50;;;;;;;1.60;100.00;94561.69;10526328;28;20171;-61
2021/12/02 06:05:28;;;;;;;8.73;1.87;;;;;;;1.56;100.00;94568.94;10526053;28;20203;-63
2021/12/02 06:10:29;;;;;;;5.13;1.63;;;;;;;1.57;100.00;94577.47;10526466;28;20174;-63
2021/12/02 06:15:29;;;;;;;7.00;1.37;;;;;;;1.45;100.00;94570.97;10525625;28;20239;-61
2021/12/02 06:20:30;;;;;;;3.87;1.30;;;;;;;1.33;100.00;94576.41;10525640;28;20175;-61
2021/12/02 06:30:32;;;;;;;4.27;1.40;;;;;;;1.19;100.00;94588.06;10525680;28;20186;-63
2021/12/02 06:35:32;;;;;;;5.23;1.53;;;;;;;1.15;100.00;94593.66;10523478;28;20227;-61
2021/12/02 06:40:34;;;;;;;4.70;1.20;;;;;;;1.22;100.00;94587.75;10525340;28;20174;-62
2021/12/02 06:45:35;;;;;;;5.93;1.80;;;;;;;1.39;100.00;94593.00;10523497;28;20221;-62
2021/12/02 06:50:37;;;;;;;3.27;1.63;;;;;;;1.43;100.00;94589.19;10525245;28;20238;-60
2021/12/02 06:55:37;;;;;;;2.70;1.67;;;;;;;1.41;100.00;94606.59;10524856;28;20171;-61
2021/12/02 07:00:37;;;;;;;4.27;1.60;;;;;;;1.51;100.00;94606.47;10525109;28;20177;-61
2021/12/02 07:05:38;;;;;;;2.77;1.40;;;;;;;1.54;100.00;94606.97;10524759;28;20218;-61
2021/12/02 07:10:38;;;;;;;5.77;1.47;;;;;;;1.56;100.00;94614.56;10524882;28;20170;-60
2021/12/02 07:15:45;;;;;;;9.17;2.87;;;;;;;1.58;100.00;94617.81;10524117;28;20214;-60
2021/12/02 07:20:47;;;;;;;5.27;1.50;;;;;;;1.56;100.00;94624.88;10524824;28;20446;-61
2021/12/02 07:25:48;;;;;;;6.73;1.47;;;;;;;1.51;100.00;94627.91;10522847;28;20365;-60
2021/12/02 07:30:54;;;;;;;3.47;1.40;;;;;;;1.35;100.00;94633.00;10551654;28;20185;-59
2021/12/02 07:35:55;;;;;;;3.33;1.40;;;;;;;1.41;100.00;94633.19;10561842;28;20253;-63
2021/12/02 07:41:02;;;;;;;6.43;1.50;;;;;;;1.42;100.00;94645.13;10564085;28;20391;-60
2021/12/02 07:46:04;;;;;;;8.50;1.80;;;;;;;1.40;100.00;94654.78;10567266;28;20210;-60
2021/12/02 07:51:09;;;;;;;4.43;1.50;;;;;;;1.25;100.00;94657.09;10570792;28;20174;-58
2021/12/02 07:56:12;;;;;;;2.57;1.27;;;;;;;1.22;100.00;94667.69;10570877;28;20171;-61
2021/12/02 08:01:14;;;;;;;3.73;1.83;;;;;;;1.12;100.00;94679.88;10571421;28;20167;-60
2021/12/02 08:06:15;;;;;;;6.53;1.57;;;;;;;1.12;100.00;94697.09;10570460;28;20439;-60
2021/12/02 08:11:16;;;;;;;3.13;1.40;;;;;;;1.11;100.00;94709.19;10570448;28;20238;-58
2021/12/02 08:16:18;;;;;;;5.40;1.73;;;;;;;1.06;100.00;94712.22;10569973;28;20219;-62
2021/12/02 08:21:18;;;;;;;9.13;1.90;;;;;;;1.25;100.00;94726.72;10568493;28;20400;-62
2021/12/02 08:26:18;;;;;;;5.13;1.80;;;;;;;1.32;100.00;94721.00;10569630;28;20217;-58
2021/12/02 08:31:19;;;;;;;6.40;1.60;;;;;;;1.34;100.00;94717.28;10562668;28;20170;-59
2021/12/02 08:36:24;;;;;;;5.47;2.30;;;;;;;1.33;100.00;94714.84;10529724;28;20182;-61
2021/12/02 08:41:24;;;;;;;2.63;1.23;;;;;;;1.30;100.00;94722.91;10547329;28;20194;-61
2021/12/02 08:46:26;;;;;;;4.27;1.70;;;;;;;1.21;100.00;94727.16;10534525;28;20214;-60
2021/12/02 08:51:26;;;;;;;3.50;1.40;;;;;;;1.70;100.00;94735.31;10540598;28;20177;-62
2021/12/02 08:56:27;;;;;;;6.87;1.40;;;;;;;1.93;100.00;94739.94;10567486;28;20174;-60
2021/12/02 09:01:30;;;;;;;3.73;1.40;;;;;;;1.85;100.00;94727.00;10568993;28;20182;-59
2021/12/02 09:06:31;;;;;;;7.83;1.40;;;;;;;2.65;100.00;94737.88;10567441;28;20254;-60
2021/12/02 09:11:33;;;;;;;3.53;1.57;;;;;;;3.07;98.29;94725.88;10567627;28;20185;-59
2021/12/02 09:16:33;;;;;;;4.83;1.50;;;;;;;3.45;95.91;94726.22;10567231;28;20234;-58
2021/12/02 09:21:34;;;;;;;5.90;1.67;;;;;;;3.81;91.54;94720.69;10567184;28;20166;-62
2021/12/02 09:26:34;;;;;;;3.90;1.23;;;;;;;3.81;91.11;94725.88;10565808;28;20209;-58
2021/12/02 09:31:35;;;;;;;5.60;1.20;;;;;;;4.82;85.84;94702.88;10548327;28;20194;-56
2021/12/02 09:36:35;;;;;;;3.13;1.20;;;;;;;5.07;80.10;94668.97;10542981;28;20188;-59
2021/12/02 09:41:37;;;;;;;5.37;1.60;;;;;;;5.21;79.39;94686.41;10559775;28;20239;-57
2021/12/02 09:46:39;;;;;;;6.30;1.40;;;;;;;4.86;83.39;94718.91;10542525;28;20364;-61
2021/12/02 09:51:48;;;;;;;4.20;1.67;;;;;;;5.58;78.27;94678.81;10547895;28;20393;-61
2021/12/02 09:56:51;;;;;;;9.97;5.83;;;;;;;6.17;77.06;94665.94;10549664;28;20167;-61
2021/12/02 10:01:56;;;;;;;6.17;2.27;;;;;;;5.52;79.31;94690.72;10551211;28;20186;-60
2021/12/02 10:07:21;;;;;;;6.80;1.37;;;;;;;7.82;69.17;94598.41;10566323;28;20358;-62
2021/12/02 10:12:23;;;;;;;6.13;1.33;;;;;;;7.01;62.22;94531.91;10565576;28;20177;-60
2021/12/02 10:22:33;;;;;;;5.03;1.17;;;;;;;4.62;72.92;94677.38;10565994;28;20409;-61
2021/12/02 10:27:34;;;;;;;5.07;1.57;;;;;;;3.81;75.53;94714.72;10563720;28;20186;-60
2021/12/02 10:32:36;;;;;;;3.63;1.37;;;;;;;4.28;73.58;94688.03;10564493;28;20172;-60
2021/12/02 10:37:40;;;;;;;4.77;1.33;;;;;;;4.31;73.23;94673.94;10565576;28;20159;-63
2021/12/02 10:42:42;;;;;;;7.37;1.50;;;;;;;4.47;71.99;94660.91;10564431;28;20308;-61
2021/12/02 10:47:49;;;;;;;11.07;1.53;;;;;;;4.62;71.34;94659.22;10564254;28;20385;-62
2021/12/02 10:52:51;;;;;;;5.97;1.40;;;;;;;4.14;73.79;94686.16;10564830;28;20167;-64
2021/12/02 10:57:54;;;;;;;5.57;1.33;;;;;;;4.96;73.71;94696.97;10564493;28;20178;-63
2021/12/02 11:02:56;;;;;;;2.73;0.97;;;;;;;6.00;67.32;94608.13;10562715;28;20424;-64
2021/12/02 11:08:07;;;;;;;2.13;0.90;;;;;;;7.84;61.20;94536.44;10563461;28;20178;-61
2021/12/02 11:13:09;;;;;;;3.30;1.10;;;;;;;7.77;59.92;94533.00;10564289;28;20631;-64
2021/12/02 11:18:11;;;;;;;4.17;1.50;;;;;;;6.82;61.75;94566.41;10563261;28;20218;-65
2021/12/02 11:23:17;;;;;;;3.80;1.10;;;;;;;7.53;62.24;94599.41;10571930;28;20261;-61
2021/12/02 11:28:17;;;;;;;3.17;1.20;;;;;;;6.84;60.71;94552.19;10572675;28;20220;-64
2021/12/02 11:33:19;;;;;;;3.37;1.13;;;;;;;7.47;60.73;94556.69;10570089;28;20208;-64
2021/12/02 11:38:23;;;;;;;5.87;1.50;;;;;;;7.37;63.50;94622.16;10571357;28;20308;-65
2021/12/02 11:43:26;;;;;;;4.57;1.60;;;;;;;7.48;62.44;94610.41;10572384;28;20447;-64
2021/12/02 11:48:29;;;;;;;6.80;1.30;;;;;;;8.61;59.00;94575.50;10570721;28;20170;-64
2021/12/02 11:53:30;;;;;;;5.63;1.30;;;;;;;7.77;59.77;94572.91;10570978;28;20228;-62
2021/12/02 11:58:30;;;;;;;7.63;1.33;;;;;;;6.33;64.20;94638.91;10568251;28;20213;-64
2021/12/02 12:03:39;;;;;;;3.60;1.20;;;;;;;6.06;65.88;94646.38;10569020;28;20284;-66
2021/12/02 12:08:43;;;;;;;7.93;1.53;;;;;;;5.71;64.77;94634.84;10570120;28;20301;-64
2021/12/02 12:13:48;;;;;;;5.97;1.40;;;;;;;5.29;65.54;94647.41;10570868;28;20211;-65
2021/12/02 12:18:49;;;;;;;2.47;1.23;;;;;;;4.50;68.90;94696.06;10569539;28;20167;-65
2021/12/02 12:24:00;;;;;;;8.87;1.97;;;;;;;4.34;70.37;94715.09;10569836;28;20194;-66
2021/12/02 12:29:03;;;;;;;4.20;1.40;;;;;;;4.08;72.36;94734.25;10569492;28;20268;-66
2021/12/02 12:34:29;;;;;;;4.93;1.83;;;;;;;3.56;75.15;94769.09;10568096;28;20232;-64
2021/12/02 12:39:33;;;;;;;9.83;2.57;;;;;;;2.93;79.73;94804.09;10569059;28;20202;-65
2021/12/02 12:44:47;;;;;;;5.43;1.90;;;;;;;3.22;80.59;94798.50;10568858;28;20260;-65
2021/12/02 12:50:20;;;;;;;9.77;2.37;;;;;;;3.14;81.99;94803.63;10569148;28;20174;-65
2021/12/02 12:55:22;;;;;;;17.20;1.93;;;;;;;3.23;79.76;94779.41;10568502;28;20178;-64
2021/12/02 13:00:41;;;;;;;8.80;1.87;;;;;;;2.97;81.64;94789.84;10568387;28;20283;-65
2021/12/02 13:05:51;;;;;;;6.33;2.73;;;;;;;3.30;81.65;94777.81;10568603;28;20190;-65
2021/12/02 13:10:56;;;;;;;9.03;2.20;;;;;;;3.73;82.17;94777.69;10566519;28;20186;-66
2021/12/02 13:16:19;;;;;;;5.63;2.00;;;;;;;4.25;77.69;94753.97;10566000;28;20214;-65
2021/12/02 13:21:34;;;;;;;6.67;1.80;;;;;;;4.09;76.26;94748.84;10566817;28;20167;-64
2021/12/02 13:26:39;;;;;;;4.90;1.67;;;;;;;3.83;77.55;94751.59;10566916;28;20218;-63
2021/12/02 13:31:42;;;;;;;9.60;1.77;;;;;;;3.50;76.99;94752.44;10566312;28;20166;-64
2021/12/02 13:36:45;;;;;;;7.57;1.83;;;;;;;3.44;78.38;94776.38;10565550;28;20221;-65
2021/12/02 13:41:56;;;;;;;7.00;2.23;;;;;;;3.44;77.66;94766.00;10565296;28;20179;-64
2021/12/02 13:46:59;;;;;;;6.83;1.60;;;;;;;3.37;79.34;94776.22;10564848;28;20205;-64
2021/12/02 13:57:38;;;;;;;4.87;1.50;;;;;;;2.72;82.57;94813.03;10565724;28;20275;-64
2021/12/02 14:02:39;;;;;;;11.40;1.73;;;;;;;2.70;82.21;94811.59;10564310;28;20190;-64
2021/12/02 14:07:42;;;;;;;3.33;1.30;;;;;;;2.31;84.14;94849.84;10564934;28;20184;-63
2021/12/02 14:12:51;;;;;;;5.07;1.47;;;;;;;2.29;84.68;94830.25;10563898;28;20178;-66
2021/12/02 14:17:52;;;;;;;6.13;2.33;;;;;;;2.10;85.62;94846.78;10564500;28;20250;-65
2021/12/02 14:22:55;;;;;;;6.53;1.50;;;;;;;2.03;87.92;94869.00;10564570;28;20247;-64
2021/12/02 14:28:15;;;;;;;4.13;1.50;;;;;;;1.64;92.25;94872.69;10563580;28;20170;-62
2021/12/02 14:33:18;;;;;;;13.70;1.40;;;;;;;1.39;99.09;94872.47;10544107;28;20193;-64
2021/12/02 14:38:32;;;;;;;7.27;1.80;;;;;;;1.05;100.00;94887.72;10543802;28;20185;-65
2021/12/02 14:43:33;;;;;;;9.13;1.90;;;;;;;1.03;100.00;94905.91;10546996;28;20325;-64
2021/12/02 14:48:33;;;;;;;6.27;1.80;;;;;;;0.98;100.00;94915.00;10543419;28;20170;-64
2021/12/02 14:53:43;;;;;;;10.60;2.60;;;;;;;0.82;100.00;94931.09;10533609;28;20205;-65
2021/12/02 14:59:04;;;;;;;3.83;1.33;;;;;;;0.55;100.00;94921.53;10522543;28;20167;-64
2021/12/02 15:04:18;;;;;;;5.93;1.97;;;;;;;0.68;100.00;94929.75;10529640;28;20210;-62
2021/12/02 15:09:36;;;;;;;6.37;1.60;;;;;;;0.64;100.00;94931.00;10540347;28;20171;-63
2021/12/02 15:14:41;;;;;;;8.13;2.07;;;;;;;0.46;100.00;94941.19;10560005;28;20241;-63
2021/12/02 15:19:48;;;;;;;6.10;1.70;;;;;;;0.35;100.00;94953.28;10563053;28;20175;-66
2021/12/02 15:24:49;;;;;;;11.93;2.20;;;;;;;0.37;100.00;94962.63;10562514;28;20198;-62
2021/12/02 15:29:52;;;;;;;9.27;2.30;;;;;;;0.44;100.00;94968.84;10562101;28;20389;-65
2021/12/02 15:34:54;;;;;;;7.17;2.60;;;;;;;0.32;100.00;94974.16;10530956;28;20179;-63
2021/12/02 15:39:54;;;;;;;21.70;9.97;;;;;;;0.22;100.00;94981.06;10521429;28;20193;-66
2021/12/02 15:44:54;;;;;;;9.33;3.43;;;;;;;0.11;100.00;94978.66;10519884;28;20212;-65
2021/12/02 15:50:03;;;;;;;12.63;6.47;;;;;;;0.05;100.00;94976.59;10546258;28;20244;-64
2021/12/02 15:55:08;;;;;;;17.67;8.77;;;;;;;0.10;100.00;94987.31;10563078;28;20386;-65
2021/12/02 16:00:15;;;;;;;21.00;12.67;;;;;;;0.27;100.00;94998.69;10562187;28;20239;-65
2021/12/02 16:05:28;;;;;;;15.87;4.87;;;;;;;0.23;100.00;94997.31;10563214;28;20204;-65
2021/12/02 16:10:45;;;;;;;10.10;2.50;;;;;;;0.24;100.00;95007.50;10566611;28;20178;-62
2021/12/02 16:15:45;;;;;;;8.30;2.23;;;;;;;0.07;100.00;95019.28;10566219;28;20636;-65
2021/12/02 16:20:46;;;;;;;9.00;3.70;;;;;;;0.23;100.00;95023.91;10567770;28;20257;-64
2021/12/02 16:25:46;;;;;;;13.60;3.47;;;;;;;0.09;100.00;95030.28;10569500;28;20201;-63
2021/12/02 16:30:47;;;;;;;12.90;4.90;;;;;;;0.13;100.00;95043.69;10567244;28;20171;-65
2021/12/02 16:35:47;;;;;;;12.50;4.53;;;;;;;0.38;100.00;95047.47;10568744;28;20197;-65
2021/12/02 16:40:48;;;;;;;7.30;2.97;;;;;;;0.28;100.00;95062.94;10568843;28;20184;-65
2021/12/02 16:45:53;;;;;;;11.17;3.07;;;;;;;0.27;100.00;95060.50;10567443;28;20203;-62
2021/12/02 16:50:53;;;;;;;6.57;2.47;;;;;;;0.31;100.00;95080.69;10566286;28;20171;-61
2021/12/02 16:55:54;;;;;;;7.27;2.70;;;;;;;0.22;100.00;95078.94;10567406;28;20254;-61
2021/12/02 17:00:54;;;;;;;10.33;2.80;;;;;;;0.36;100.00;95090.59;10568287;28;20197;-61
2021/12/02 17:05:55;;;;;;;8.23;2.73;;;;;;;0.48;100.00;95107.56;10566214;28;20261;-64
2021/12/02 17:10:58;;;;;;;9.47;2.70;;;;;;;0.47;100.00;95110.28;10567596;28;20193;-62
2021/12/02 17:15:58;;;;;;;9.37;2.53;;;;;;;0.04;100.00;95114.00;10568592;28;20663;-62
2021/12/02 17:20:59;;;;;;;5.77;2.20;;;;;;;-0.05;100.00;95128.44;10563089;28;20179;-63
2021/12/02 17:25:59;;;;;;;6.93;2.07;;;;;;;-0.40;100.00;95132.22;10546042;28;20195;-62
2021/12/02 17:31:00;;;;;;;3.47;1.90;;;;;;;-0.26;100.00;95147.34;10545513;28;20175;-63
2021/12/02 17:36:00;;;;;;;5.77;2.27;;;;;;;-0.12;100.00;95164.19;10527313;28;20167;-63
2021/12/02 17:41:01;;;;;;;7.27;2.83;;;;;;;-0.07;100.00;95181.81;10539079;28;20191;-62
2021/12/02 17:46:02;;;;;;;14.77;6.03;;;;;;;-0.30;100.00;95176.84;10528643;28;20203;-64
2021/12/02 17:51:02;;;;;;;5.10;1.73;;;;;;;-0.61;100.00;95163.13;10526098;28;20397;-61
2021/12/02 17:56:04;;;;;;;11.40;5.03;;;;;;;-0.53;100.00;95171.03;10530909;28;20639;-62
2021/12/02 18:01:04;;;;;;;3.93;1.50;;;;;;;-0.60;100.00;95175.88;10558323;28;20178;-62
2021/12/02 18:06:05;;;;;;;10.57;7.60;;;;;;;-0.54;100.00;95166.81;10567912;28;20202;-61
2021/12/02 18:11:05;;;;;;;3.13;1.30;;;;;;;-0.63;100.00;95180.44;10540901;28;20169;-63
2021/12/02 18:16:05;;;;;;;3.53;1.20;;;;;;;-0.81;99.65;95162.16;10525511;28;20473;-64
2021/12/02 18:21:08;;;;;;;1.27;1.00;;;;;;;-1.11;100.00;95194.56;10533912;28;20289;-62
2021/12/02 18:26:09;;;;;;;0.87;0.70;;;;;;;-1.03;100.00;95196.53;10543556;28;20279;-64
2021/12/02 18:31:12;;;;;;;2.57;1.07;;;;;;;-1.31;100.00;95216.69;10542261;28;20167;-64
2021/12/02 18:36:13;;;;;;;1.20;1.10;;;;;;;-1.54;100.00;95227.00;10524951;28;20160;-63
2021/12/02 18:41:14;;;;;;;5.17;1.47;;;;;;;-1.44;100.00;95225.38;10524007;28;20170;-62
2021/12/02 18:46:14;;;;;;;1.53;1.30;;;;;;;-1.59;100.00;95236.00;10523640;28;20203;-63
2021/12/02 18:51:15;;;;;;;1.40;1.30;;;;;;;-1.64;100.00;95233.78;10523569;28;20183;-61
2021/12/02 18:56:16;;;;;;;2.80;1.40;;;;;;;-1.50;100.00;95243.81;10533398;28;20197;-64
2021/12/02 19:01:16;;;;;;;1.77;1.47;;;;;;;-1.63;100.00;95240.56;10523424;28;20343;-61
2021/12/02 19:06:28;;;;;;;3.40;1.10;;;;;;;-1.64;100.00;95228.66;10526071;28;20195;-63
2021/12/02 19:27:25;;;;;;;1.00;0.90;;;;;;;-1.43;97.15;95249.28;10557347;28;20271;-63
2021/12/02 19:32:27;;;;;;;1.17;0.83;;;;;;;-1.63;99.85;95263.66;10564813;28;20167;-60
2021/12/02 19:37:27;;;;;;;1.20;1.00;;;;;;;-1.91;100.00;95280.38;10563617;28;20458;-62
2021/12/02 19:42:28;;;;;;;3.20;1.80;;;;;;;-2.15;100.00;95288.94;10548408;28;20234;-64
2021/12/02 19:47:28;;;;;;;8.17;3.70;;;;;;;-2.35;100.00;95304.03;10565680;28;20202;-65
2021/12/02 19:52:29;;;;;;;5.60;2.40;;;;;;;-2.42;100.00;95302.03;10541685;28;20397;-64
2021/12/02 19:57:29;;;;;;;2.63;1.80;;;;;;;-2.43;100.00;95313.25;10534321;28;20335;-63
2021/12/02 20:02:29;;;;;;;2.23;1.13;;;;;;;-2.51;100.00;95329.19;10568833;28;20302;-63
2021/12/02 20:07:30;;;;;;;2.40;1.10;;;;;;;-2.60;100.00;95335.78;10571337;28;20166;-62
2021/12/02 20:12:30;;;;;;;4.57;1.40;;;;;;;-2.85;100.00;95346.94;10571807;28;20182;-64
2021/12/02 20:17:32;;;;;;;1.57;1.13;;;;;;;-2.87;100.00;95359.88;10571187;28;20232;-63
2021/12/02 20:22:34;;;;;;;5.87;1.10;;;;;;;-2.73;100.00;95355.53;10571079;28;20169;-64
2021/12/02 20:27:36;;;;;;;2.80;1.03;;;;;;;-2.79;100.00;95356.75;10570290;28;20166;-63
2021/12/02 20:32:37;;;;;;;1.50;1.00;;;;;;;-2.77;100.00;95364.34;10570643;28;20185;-63
2021/12/02 20:37:38;;;;;;;1.27;1.17;;;;;;;-2.75;100.00;95372.75;10569858;28;20166;-63
2021/12/02 20:42:39;;;;;;;2.57;1.40;;;;;;;-2.83;100.00;95381.00;10570528;28;20174;-63
2021/12/02 20:47:53;;;;;;;3.77;1.50;;;;;;;-2.73;100.00;95393.97;10567683;28;20174;-64
2021/12/02 20:52:54;;;;;;;2.97;1.23;;;;;;;-2.60;100.00;95392.19;10539036;28;20175;-61
2021/12/02 20:57:55;;;;;;;3.17;1.40;;;;;;;-2.49;100.00;95393.19;10527318;28;20181;-63
2021/12/02 21:02:56;;;;;;;3.63;2.40;;;;;;;-2.54;100.00;95399.44;10526818;28;20263;-63
2021/12/02 21:07:57;;;;;;;1.90;1.50;;;;;;;-2.63;100.00;95396.72;10527028;28;20198;-63
2021/12/02 21:12:58;;;;;;;3.07;1.50;;;;;;;-2.67;100.00;95395.28;10526850;28;20195;-63
2021/12/02 21:18:00;;;;;;;1.70;1.60;;;;;;;-2.74;100.00;95402.56;10526255;28;20218;-61
2021/12/02 21:23:02;;;;;;;6.07;2.00;;;;;;;-2.71;100.00;95410.03;10526300;28;20337;-64
2021/12/02 21:28:03;;;;;;;2.63;1.80;;;;;;;-2.74;100.00;95410.25;10530146;28;20230;-64
2021/12/02 21:33:04;;;;;;;6.80;2.53;;;;;;;-2.80;100.00;95429.47;10548262;28;20171;-62
2021/12/02 21:38:10;;;;;;;6.27;2.23;;;;;;;-2.84;100.00;95440.03;10552512;28;20315;-62
2021/12/02 21:43:11;;;;;;;7.03;2.40;;;;;;;-2.58;100.00;95436.47;10567438;28;20198;-61
2021/12/02 21:48:11;;;;;;;5.63;2.27;;;;;;;-2.42;100.00;95446.47;10567969;28;20436;-63
2021/12/02 21:53:12;;;;;;;9.57;2.90;;;;;;;-2.38;100.00;95449.63;10568647;28;20179;-62
2021/12/02 21:58:14;;;;;;;5.37;3.00;;;;;;;-2.39;100.00;95453.13;10568103;28;20177;-63
2021/12/02 22:03:15;;;;;;;6.47;2.93;;;;;;;-2.41;100.00;95460.91;10567326;28;20305;-64
2021/12/02 22:08:16;;;;;;;6.17;3.10;;;;;;;-2.51;100.00;95467.63;10568102;28;20171;-63
2021/12/02 22:13:16;;;;;;;10.13;3.83;;;;;;;-2.49;100.00;95470.09;10567279;28;20248;-63
2021/12/02 22:18:17;;;;;;;12.43;3.53;;;;;;;-2.62;100.00;95482.94;10567223;28;20332;-62
2021/12/02 22:23:18;;;;;;;7.97;3.53;;;;;;;-2.54;100.00;95489.19;10566958;28;20357;-62
2021/12/02 22:28:19;;;;;;;7.13;4.07;;;;;;;-2.60;100.00;95494.72;10566971;28;20232;-63
2021/12/02 22:33:19;;;;;;;9.00;3.70;;;;;;;-2.49;100.00;95511.94;10566616;28;20167;-64
2021/12/02 22:38:22;;;;;;;9.67;3.00;;;;;;;-2.41;100.00;95521.66;10566995;28;20161;-65
2021/12/02 22:43:22;;;;;;;6.07;4.13;;;;;;;-2.39;100.00;95518.06;10566538;28;20202;-62
2021/12/02 22:48:23;;;;;;;9.03;4.67;;;;;;;-2.60;100.00;95522.13;10566306;28;20173;-63
2021/12/02 22:53:24;;;;;;;9.60;4.30;;;;;;;-2.52;100.00;95525.78;10566848;28;20276;-64
2021/12/02 22:58:25;;;;;;;10.63;3.90;;;;;;;-2.50;100.00;95523.09;10565930;28;20171;-64
2021/12/02 23:03:26;;;;;;;9.03;4.20;;;;;;;-2.57;100.00;95524.47;10566577;28;20198;-66
2021/12/02 23:08:28;;;;;;;8.80;4.70;;;;;;;-2.75;100.00;95523.97;10566389;28;20174;-66
2021/12/02 23:13:29;;;;;;;7.63;5.13;;;;;;;-2.82;100.00;95531.25;10565604;28;20186;-62
2021/12/02 23:18:30;;;;;;;9.47;5.07;;;;;;;-2.78;100.00;95537.00;10571276;28;20175;-66
2021/12/02 23:23:32;;;;;;;11.77;5.40;;;;;;;-2.93;100.00;95555.03;10574153;28;20308;-64
2021/12/02 23:28:32;;;;;;;10.17;5.60;;;;;;;-2.99;100.00;95552.88;10573841;28;20166;-65
2021/12/02 23:33:35;;;;;;;12.17;5.17;;;;;;;-3.03;100.00;95556.59;10573900;28;20177;-64
2021/12/02 23:38:37;;;;;;;17.67;6.07;;;;;;;-3.03;100.00;95566.00;10573794;28;20167;-65
2021/12/02 23:43:38;;;;;;;12.07;6.47;;;;;;;-2.94;100.00;95581.59;10573354;28;20209;-63
2021/12/02 23:48:39;;;;;;;12.27;6.70;;;;;;;-2.83;100.00;95574.91;10573372;28;20182;-67
2021/12/02 23:53:39;;;;;;;11.27;6.63;;;;;;;-2.94;100.00;95576.47;10573173;28;20171;-66
2021/12/02 23:58:40;;;;;;;14.80;6.70;;;;;;;-2.88;100.00;95577.78;10572886;28;20166;-65
